createdAt,value
2022-12-06T00:02:15.325Z,7.00
2022-12-06T00:04:43.562Z,6.90
2022-12-06T00:07:13.251Z,6.90
2022-12-06T00:09:43.027Z,6.90
2022-12-06T00:12:11.250Z,6.80
2022-12-06T00:14:39.585Z,6.80
2022-12-06T00:17:07.851Z,6.80
2022-12-06T00:19:36.141Z,6.80
2022-12-06T00:22:24.408Z,6.70
2022-12-06T00:24:54.613Z,6.70
2022-12-06T00:27:22.797Z,6.70
2022-12-06T00:29:51.547Z,6.70
2022-12-06T00:32:20.047Z,6.70
2022-12-06T00:34:48.345Z,6.60
2022-12-06T00:37:18.554Z,6.70
2022-12-06T00:39:47.050Z,6.60
2022-12-06T00:42:16.706Z,6.60
2022-12-06T00:44:44.982Z,6.60
2022-12-06T00:47:13.220Z,6.50
2022-12-06T00:49:41.480Z,6.50
2022-12-06T00:52:09.728Z,6.50
2022-12-06T00:54:37.933Z,6.50
2022-12-06T00:57:06.338Z,6.50
2022-12-06T00:59:35.936Z,6.50
2022-12-06T01:02:04.133Z,6.50
2022-12-06T01:04:32.400Z,6.40
2022-12-06T01:07:01.196Z,6.40
2022-12-06T01:09:31.085Z,6.50
2022-12-06T01:11:59.597Z,6.40
2022-12-06T01:14:27.562Z,6.40
2022-12-06T01:16:57.022Z,6.40
2022-12-06T01:19:25.079Z,6.50
2022-12-06T01:21:52.973Z,6.50
2022-12-06T01:24:21.065Z,6.50
2022-12-06T01:26:49.022Z,6.50
2022-12-06T01:29:17.301Z,6.50
2022-12-06T01:31:45.247Z,6.50
2022-12-06T01:34:18.231Z,6.50
2022-12-06T01:36:46.688Z,6.60
2022-12-06T01:39:14.824Z,6.70
2022-12-06T01:41:43.180Z,6.60
2022-12-06T01:44:42.893Z,6.70
2022-12-06T01:47:19.632Z,6.70
2022-12-06T01:49:54.236Z,6.70
2022-12-06T01:52:26.739Z,6.70
2022-12-06T01:54:55.381Z,6.70
2022-12-06T01:57:23.802Z,6.70
2022-12-06T01:59:52.099Z,6.70
2022-12-06T02:02:20.157Z,6.70
2022-12-06T02:04:51.343Z,6.70
2022-12-06T02:07:20.360Z,6.70
2022-12-06T02:09:48.881Z,6.80
2022-12-06T02:12:17.381Z,6.80
2022-12-06T02:14:48.780Z,6.80
2022-12-06T02:17:33.880Z,6.80
2022-12-06T02:20:27.952Z,6.80
2022-12-06T02:23:39.631Z,6.80
2022-12-06T02:26:37.229Z,6.80
2022-12-06T02:29:55.002Z,6.90
2022-12-06T02:32:29.517Z,6.80
2022-12-06T02:35:01.502Z,6.90
2022-12-06T02:37:35.490Z,6.80
2022-12-06T02:40:08.268Z,6.90
2022-12-06T02:42:43.086Z,6.90
2022-12-06T02:45:15.267Z,6.90
2022-12-06T02:47:46.347Z,6.90
2022-12-06T02:50:18.473Z,6.90
2022-12-06T02:52:49.919Z,6.90
2022-12-06T02:55:19.434Z,6.90
2022-12-06T02:57:49.967Z,6.80
2022-12-06T03:00:38.302Z,6.90
2022-12-06T03:03:30.675Z,6.90
2022-12-06T03:06:24.467Z,6.90
2022-12-06T03:09:06.022Z,6.90
2022-12-06T03:11:41.494Z,6.90
2022-12-06T03:14:15.299Z,6.90
2022-12-06T03:16:48.666Z,6.90
2022-12-06T03:19:21.491Z,6.90
2022-12-06T03:21:55.323Z,7.00
2022-12-06T03:24:25.506Z,7.00
2022-12-06T03:26:56.425Z,7.00
2022-12-06T03:29:29.449Z,7.00
2022-12-06T03:32:01.642Z,7.00
2022-12-06T03:34:34.449Z,7.00
2022-12-06T03:37:04.990Z,7.00
2022-12-06T03:39:39.762Z,7.10
2022-12-06T03:42:08.325Z,7.00
2022-12-06T03:44:36.524Z,7.10
2022-12-06T03:47:10.509Z,7.00
2022-12-06T03:49:44.156Z,7.00
2022-12-06T03:52:12.451Z,7.00
2022-12-06T03:54:40.920Z,7.00
2022-12-06T03:57:09.310Z,7.00
2022-12-06T03:59:37.380Z,6.90
2022-12-06T04:02:05.459Z,6.90
2022-12-06T04:04:33.682Z,6.80
2022-12-06T04:07:03.021Z,6.80
2022-12-06T04:09:48.560Z,6.70
2022-12-06T04:12:45.179Z,6.70
2022-12-06T04:15:13.212Z,6.60
2022-12-06T04:17:59.546Z,6.50
2022-12-06T04:20:28.521Z,6.60
2022-12-06T04:23:05.527Z,6.50
2022-12-06T04:25:34.666Z,6.50
2022-12-06T04:28:21.065Z,6.40
2022-12-06T04:31:07.252Z,6.40
2022-12-06T04:33:52.662Z,6.40
2022-12-06T04:36:38.226Z,6.40
2022-12-06T04:39:08.181Z,6.40
2022-12-06T04:41:53.690Z,6.40
2022-12-06T04:44:21.647Z,6.40
2022-12-06T04:46:49.660Z,6.40
2022-12-06T04:49:17.785Z,6.40
2022-12-06T04:51:45.905Z,6.40
2022-12-06T04:54:15.265Z,6.40
2022-12-06T04:56:43.363Z,6.40
2022-12-06T04:59:11.376Z,6.40
2022-12-06T05:01:59.375Z,6.40
2022-12-06T05:04:27.445Z,6.40
2022-12-06T05:06:55.435Z,6.40
2022-12-06T05:09:24.828Z,6.40
2022-12-06T05:11:52.800Z,6.40
2022-12-06T05:14:21.111Z,6.40
2022-12-06T05:16:49.176Z,6.50
2022-12-06T05:19:17.490Z,6.50
2022-12-06T05:21:45.470Z,6.50
2022-12-06T05:24:14.225Z,6.50
2022-12-06T05:26:43.663Z,6.50
2022-12-06T05:29:11.725Z,6.50
2022-12-06T05:31:39.767Z,6.50
2022-12-06T05:34:07.790Z,6.50
2022-12-06T05:36:35.946Z,6.50
2022-12-06T05:39:04.319Z,6.60
2022-12-06T05:41:32.270Z,6.50
2022-12-06T05:44:01.599Z,6.60
2022-12-06T05:46:29.717Z,6.50
2022-12-06T05:48:57.753Z,6.50
2022-12-06T05:51:25.797Z,6.60
2022-12-06T05:53:53.953Z,6.60
2022-12-06T05:56:21.886Z,6.60
2022-12-06T05:58:49.897Z,6.50
2022-12-06T06:01:39.668Z,6.60
2022-12-06T06:04:07.741Z,6.60
2022-12-06T06:06:35.705Z,6.60
2022-12-06T06:09:03.891Z,6.60
2022-12-06T06:11:31.999Z,6.50
2022-12-06T06:14:00.047Z,6.60
2022-12-06T06:16:29.495Z,6.60
2022-12-06T06:18:57.581Z,6.60
2022-12-06T06:21:27.644Z,6.60
2022-12-06T06:23:57.885Z,6.60
2022-12-06T06:26:25.908Z,6.60
2022-12-06T06:28:54.067Z,6.60
2022-12-06T06:31:22.243Z,6.60
2022-12-06T06:33:52.393Z,6.60
2022-12-06T06:36:20.873Z,6.60
2022-12-06T06:38:48.831Z,6.60
2022-12-06T06:41:17.023Z,6.60
2022-12-06T06:43:45.019Z,6.50
2022-12-06T06:46:13.083Z,6.50
2022-12-06T06:48:41.600Z,6.50
2022-12-06T06:51:12.151Z,6.40
2022-12-06T06:53:40.636Z,6.30
2022-12-06T06:56:09.596Z,6.30
2022-12-06T06:58:37.909Z,6.30
2022-12-06T07:01:07.877Z,6.20
2022-12-06T07:03:36.584Z,6.20
2022-12-06T07:06:09.045Z,6.10
2022-12-06T07:08:40.181Z,6.10
2022-12-06T07:11:08.249Z,6.00
2022-12-06T07:13:38.176Z,6.00
2022-12-06T07:16:07.874Z,5.90
2022-12-06T07:18:36.420Z,5.90
2022-12-06T07:21:07.288Z,5.80
2022-12-06T07:23:49.091Z,5.80
2022-12-06T07:26:18.505Z,5.70
2022-12-06T07:28:47.691Z,5.70
2022-12-06T07:31:17.994Z,5.60
2022-12-06T07:33:46.923Z,5.60
2022-12-06T07:36:16.656Z,5.50
2022-12-06T07:38:50.353Z,5.50
2022-12-06T07:41:37.218Z,5.40
2022-12-06T07:44:23.006Z,5.40
2022-12-06T07:46:51.728Z,5.40
2022-12-06T07:49:20.210Z,5.30
2022-12-06T07:51:48.711Z,5.20
2022-12-06T07:54:18.506Z,5.30
2022-12-06T07:56:47.002Z,5.30
2022-12-06T07:59:15.347Z,5.20
2022-12-06T08:01:44.039Z,5.20
2022-12-06T08:04:13.626Z,5.20
2022-12-06T08:06:42.056Z,5.20
2022-12-06T08:09:10.436Z,5.20
2022-12-06T08:11:40.278Z,5.20
2022-12-06T08:14:08.476Z,5.10
2022-12-06T08:16:36.784Z,5.10
2022-12-06T08:19:05.233Z,5.10
2022-12-06T08:21:33.284Z,5.10
2022-12-06T08:24:02.285Z,5.10
2022-12-06T08:26:30.300Z,5.10
2022-12-06T08:29:01.433Z,5.10
2022-12-06T08:31:31.063Z,5.10
2022-12-06T08:33:59.380Z,5.10
2022-12-06T08:36:28.416Z,5.10
2022-12-06T08:38:57.445Z,5.10
2022-12-06T08:41:43.859Z,5.10
2022-12-06T08:44:14.776Z,5.10
2022-12-06T08:46:43.491Z,5.10
2022-12-06T08:49:12.362Z,5.10
2022-12-06T08:51:40.825Z,5.20
2022-12-06T08:54:10.216Z,5.20
2022-12-06T08:56:38.808Z,5.20
2022-12-06T08:59:07.027Z,5.10
2022-12-06T09:01:38.293Z,5.20
2022-12-06T09:04:08.920Z,5.20
2022-12-06T09:06:40.006Z,5.30
2022-12-06T09:09:09.540Z,5.30
2022-12-06T09:11:38.275Z,5.40
2022-12-06T09:14:07.444Z,5.40
2022-12-06T09:16:36.911Z,5.50
2022-12-06T09:19:04.959Z,5.50
2022-12-06T09:21:34.342Z,5.60
2022-12-06T09:24:02.589Z,5.70
2022-12-06T09:26:30.579Z,5.70
2022-12-06T09:28:59.264Z,5.80
2022-12-06T09:31:27.375Z,6.00
2022-12-06T09:33:56.941Z,6.00
2022-12-06T09:36:26.698Z,6.20
2022-12-06T09:38:57.682Z,6.20
2022-12-06T09:41:53.676Z,6.30
2022-12-06T09:44:34.228Z,6.40
2022-12-06T09:47:18.768Z,6.50
2022-12-06T09:50:01.009Z,6.50
2022-12-06T09:52:42.588Z,6.60
2022-12-06T09:55:34.361Z,6.60
2022-12-06T09:58:12.341Z,6.70
2022-12-06T10:00:45.739Z,6.70
2022-12-06T10:03:33.707Z,6.80
2022-12-06T10:06:07.447Z,6.90
2022-12-06T10:09:00.406Z,7.00
2022-12-06T10:11:44.750Z,7.00
2022-12-06T10:14:25.079Z,7.10
2022-12-06T10:16:58.681Z,7.10
2022-12-06T10:19:41.734Z,7.10
2022-12-06T10:22:21.165Z,7.20
2022-12-06T10:25:00.530Z,7.20
2022-12-06T10:27:37.736Z,7.20
2022-12-06T10:30:10.729Z,7.20
2022-12-06T10:33:05.621Z,7.30
2022-12-06T10:35:42.563Z,7.30
2022-12-06T10:38:23.600Z,7.40
2022-12-06T10:41:00.264Z,7.50
2022-12-06T10:43:34.678Z,7.50
2022-12-06T10:46:28.749Z,7.50
2022-12-06T10:49:05.378Z,7.60
2022-12-06T10:51:38.221Z,7.60
2022-12-06T10:54:21.652Z,7.60
2022-12-06T10:56:51.923Z,7.60
2022-12-06T10:59:28.927Z,7.70
2022-12-06T11:02:01.114Z,7.60
2022-12-06T11:04:34.526Z,7.60
2022-12-06T11:07:09.245Z,7.60
2022-12-06T11:09:43.090Z,7.60
2022-12-06T11:12:29.522Z,7.60
2022-12-06T11:15:07.273Z,7.60
2022-12-06T11:17:40.568Z,7.60
2022-12-06T11:20:19.791Z,7.60
2022-12-06T11:22:54.918Z,7.60
2022-12-06T11:25:30.257Z,7.60
2022-12-06T11:28:05.218Z,7.60
2022-12-06T11:30:34.872Z,7.60
2022-12-06T11:33:03.665Z,7.60
2022-12-06T11:35:34.456Z,7.70
2022-12-06T11:38:06.736Z,7.70
2022-12-06T11:40:39.377Z,7.70
2022-12-06T11:43:13.622Z,7.70
2022-12-06T11:45:43.467Z,7.70
2022-12-06T11:48:16.359Z,7.80
2022-12-06T11:50:46.592Z,7.80
2022-12-06T11:53:22.957Z,7.90
2022-12-06T11:55:55.031Z,7.90
2022-12-06T11:58:32.604Z,8.00
2022-12-06T12:01:03.387Z,8.00
2022-12-06T12:03:33.847Z,8.10
2022-12-06T12:06:23.551Z,8.20
2022-12-06T12:09:02.158Z,8.20
2022-12-06T12:11:33.648Z,8.20
2022-12-06T12:14:04.462Z,8.30
2022-12-06T12:16:37.298Z,8.50
2022-12-06T12:19:08.734Z,8.50
2022-12-06T12:21:40.215Z,8.60
2022-12-06T12:27:35.572Z,8.70
2022-12-06T12:30:21.191Z,8.80
2022-12-06T12:32:51.746Z,8.80
2022-12-06T12:35:46.670Z,8.90
2022-12-06T12:38:20.288Z,9.00
2022-12-06T12:40:51.161Z,9.00
2022-12-06T12:43:23.848Z,8.90
2022-12-06T12:46:08.624Z,8.90
2022-12-06T12:48:38.386Z,8.90
2022-12-06T12:51:20.256Z,8.90
2022-12-06T12:53:54.746Z,8.90
2022-12-06T12:56:23.900Z,9.00
2022-12-06T12:58:56.702Z,9.00
2022-12-06T13:01:37.580Z,9.10
2022-12-06T13:04:14.379Z,9.00
2022-12-06T13:06:49.151Z,9.10
2022-12-06T13:09:25.009Z,9.10
2022-12-06T13:11:58.553Z,9.10
2022-12-06T13:14:29.749Z,9.10
2022-12-06T13:17:01.486Z,9.00
2022-12-06T13:19:34.623Z,9.00
2022-12-06T13:22:04.828Z,9.00
2022-12-06T13:24:34.800Z,9.00
2022-12-06T13:27:05.942Z,9.00
2022-12-06T13:29:39.149Z,9.10
2022-12-06T13:32:15.211Z,9.10
2022-12-06T13:34:49.978Z,9.00
2022-12-06T13:37:35.794Z,9.00
2022-12-06T13:40:06.123Z,9.00
2022-12-06T13:42:52.510Z,8.90
2022-12-06T13:45:42.847Z,8.90
2022-12-06T13:48:37.246Z,8.90
2022-12-06T13:51:10.195Z,8.80
2022-12-06T13:54:31.751Z,8.80
2022-12-06T13:57:03.433Z,8.80
2022-12-06T13:59:39.015Z,8.70
2022-12-06T14:02:52.128Z,8.70
2022-12-06T14:06:07.501Z,8.70
2022-12-06T14:08:42.728Z,8.70
2022-12-06T14:11:17.948Z,8.60
2022-12-06T14:13:48.232Z,8.70
2022-12-06T14:16:23.951Z,8.80
2022-12-06T14:18:55.204Z,8.70
2022-12-06T14:21:29.984Z,8.80
2022-12-06T14:23:58.713Z,8.80
2022-12-06T14:26:28.900Z,8.90
2022-12-06T14:28:59.549Z,8.90
2022-12-06T14:31:30.649Z,8.80
2022-12-06T14:33:59.389Z,8.80
2022-12-06T14:36:31.672Z,8.80
2022-12-06T14:39:02.997Z,8.80
2022-12-06T14:41:53.082Z,8.80
2022-12-06T14:44:24.617Z,8.80
2022-12-06T14:46:53.358Z,8.80
2022-12-06T14:49:41.650Z,8.90
2022-12-06T14:52:23.784Z,8.80
2022-12-06T14:54:53.260Z,8.80
2022-12-06T14:57:28.984Z,8.80
2022-12-06T15:00:26.634Z,8.80
2022-12-06T15:03:07.389Z,8.80
2022-12-06T15:05:38.992Z,8.80
2022-12-06T15:08:33.271Z,8.80
2022-12-06T15:11:03.157Z,8.70
2022-12-06T15:13:32.712Z,8.70
2022-12-06T15:16:20.857Z,8.60
2022-12-06T15:19:02.094Z,8.60
2022-12-06T15:21:31.107Z,8.60
2022-12-06T15:24:00.897Z,8.60
2022-12-06T15:26:29.015Z,8.60
2022-12-06T15:28:57.236Z,8.60
2022-12-06T15:31:27.912Z,8.50
2022-12-06T15:33:57.307Z,8.50
2022-12-06T15:36:30.862Z,8.50
2022-12-06T15:39:01.241Z,8.50
2022-12-06T15:41:30.729Z,8.50
2022-12-06T15:43:58.830Z,8.50
2022-12-06T15:46:33.004Z,8.40
2022-12-06T15:49:01.729Z,8.50
2022-12-06T15:51:30.935Z,8.40
2022-12-06T15:54:02.507Z,8.40
2022-12-06T15:56:31.552Z,8.40
2022-12-06T15:59:00.358Z,8.40
2022-12-06T16:01:30.503Z,8.40
2022-12-06T16:03:59.199Z,8.40
2022-12-06T16:06:29.673Z,8.40
2022-12-06T16:08:58.341Z,8.40
2022-12-06T16:11:29.330Z,8.30
2022-12-06T16:13:57.488Z,8.20
2022-12-06T16:16:26.131Z,8.20
2022-12-06T16:18:55.194Z,8.20
2022-12-06T16:21:25.488Z,8.20
2022-12-06T16:24:13.517Z,8.20
2022-12-06T16:26:48.165Z,8.20
2022-12-06T16:29:18.227Z,8.10
2022-12-06T16:31:46.581Z,8.10
2022-12-06T16:34:15.519Z,8.10
2022-12-06T16:36:58.254Z,8.10
2022-12-06T16:39:27.851Z,8.10
2022-12-06T16:41:57.264Z,8.10
2022-12-06T16:44:26.258Z,8.10
2022-12-06T16:46:54.571Z,8.10
2022-12-06T16:52:32.477Z,8.10
2022-12-06T16:55:00.567Z,8.10
2022-12-06T16:57:30.409Z,8.20
2022-12-06T16:59:58.491Z,8.10
2022-12-06T17:02:28.937Z,8.10
2022-12-06T17:05:02.092Z,8.10
2022-12-06T17:07:30.823Z,8.00
2022-12-06T17:09:59.437Z,8.00
2022-12-06T17:12:29.340Z,7.90
2022-12-06T17:14:57.837Z,7.90
2022-12-06T17:17:29.571Z,7.90
2022-12-06T17:20:00.722Z,7.80
2022-12-06T17:22:29.230Z,7.80
2022-12-06T17:24:57.721Z,7.70
2022-12-06T17:27:25.634Z,7.80
2022-12-06T17:29:55.135Z,7.60
2022-12-06T17:32:24.249Z,7.60
2022-12-06T17:34:52.595Z,7.60
2022-12-06T17:37:21.030Z,7.60
2022-12-06T17:39:49.690Z,7.60
2022-12-06T17:42:52.185Z,7.60
2022-12-06T17:45:24.798Z,7.60
2022-12-06T17:47:53.430Z,7.70
2022-12-06T17:50:29.066Z,7.60
2022-12-06T17:52:57.432Z,7.60
2022-12-06T17:55:25.555Z,7.50
2022-12-06T17:57:53.545Z,7.60
2022-12-06T18:00:24.114Z,7.60
2022-12-06T18:02:52.216Z,7.50
2022-12-06T18:05:20.492Z,7.60
2022-12-06T18:07:48.855Z,7.50
2022-12-06T18:10:17.283Z,7.50
2022-12-06T18:12:45.275Z,7.50
2022-12-06T18:15:37.487Z,7.50
2022-12-06T18:18:07.418Z,7.50
2022-12-06T18:20:35.584Z,7.50
2022-12-06T18:23:03.634Z,7.50
2022-12-06T18:25:33.792Z,7.50
2022-12-06T18:28:01.973Z,7.40
2022-12-06T18:30:30.123Z,7.40
2022-12-06T18:33:01.805Z,7.30
2022-12-06T18:35:31.619Z,7.30
2022-12-06T18:37:59.696Z,7.30
2022-12-06T18:40:28.229Z,7.20
2022-12-06T18:42:56.455Z,7.20
2022-12-06T18:45:24.547Z,7.30
2022-12-06T18:47:52.854Z,7.30
2022-12-06T18:50:23.815Z,7.20
2022-12-06T18:52:57.543Z,7.20
2022-12-06T18:55:46.626Z,7.20
2022-12-06T18:58:14.734Z,7.20
2022-12-06T19:00:43.494Z,7.20
2022-12-06T19:03:11.596Z,7.20
2022-12-06T19:06:01.914Z,7.10
2022-12-06T19:08:34.264Z,7.20
2022-12-06T19:11:23.563Z,7.10
2022-12-06T19:13:54.412Z,7.10
2022-12-06T19:16:26.772Z,7.20
2022-12-06T19:18:58.234Z,7.10
2022-12-06T19:21:29.466Z,7.10
2022-12-06T19:24:21.693Z,7.10
2022-12-06T19:26:51.639Z,7.20
2022-12-06T19:30:01.396Z,7.20
2022-12-06T19:32:30.753Z,7.30
2022-12-06T19:35:08.019Z,7.30
2022-12-06T19:37:41.759Z,7.30
2022-12-06T19:40:34.302Z,7.40
2022-12-06T19:43:20.273Z,7.40
2022-12-06T19:45:51.700Z,7.40
2022-12-06T19:48:22.750Z,7.40
2022-12-06T19:51:15.065Z,7.30
2022-12-06T19:53:44.139Z,7.40
2022-12-06T19:56:36.710Z,7.40
2022-12-06T19:59:14.036Z,7.40
2022-12-06T20:01:45.498Z,7.40
2022-12-06T20:04:16.964Z,7.40
2022-12-06T20:06:48.543Z,7.40
2022-12-06T20:09:23.373Z,7.40
2022-12-06T20:12:04.645Z,7.50
2022-12-06T20:14:39.953Z,7.50
2022-12-06T20:17:10.756Z,7.40
2022-12-06T20:20:01.786Z,7.40
2022-12-06T20:22:31.570Z,7.50
2022-12-06T20:25:03.033Z,7.40
2022-12-06T20:27:50.174Z,7.40
2022-12-06T20:30:38.581Z,7.40
2022-12-06T20:33:08.121Z,7.40
2022-12-06T20:35:40.027Z,7.50
2022-12-06T20:38:08.880Z,7.40
2022-12-06T20:40:38.856Z,7.40
2022-12-06T20:43:10.388Z,7.40
2022-12-06T20:45:44.592Z,7.30
2022-12-06T20:48:38.804Z,7.30
2022-12-06T20:51:11.907Z,7.30
2022-12-06T20:53:43.530Z,7.30
2022-12-06T20:56:16.011Z,7.30
2022-12-06T20:58:45.936Z,7.30
2022-12-06T21:01:16.163Z,7.30
2022-12-06T21:03:44.996Z,7.30
2022-12-06T21:06:14.019Z,7.30
2022-12-06T21:09:03.555Z,7.40
2022-12-06T21:11:32.819Z,7.40
2022-12-06T21:14:06.156Z,7.40
2022-12-06T21:16:39.272Z,7.50
2022-12-06T21:19:10.196Z,7.40
2022-12-06T21:21:43.410Z,7.50
2022-12-06T21:24:14.653Z,7.40
2022-12-06T21:26:46.242Z,7.40
2022-12-06T21:29:29.749Z,7.30
2022-12-06T21:31:58.395Z,7.30
2022-12-06T21:34:28.915Z,7.30
2022-12-06T21:36:57.086Z,7.30
2022-12-06T21:39:25.940Z,7.30
2022-12-06T21:41:54.871Z,7.30
2022-12-06T21:44:25.193Z,7.20
2022-12-06T21:46:56.581Z,7.20
2022-12-06T21:49:28.896Z,7.30
2022-12-06T21:52:03.175Z,7.30
2022-12-06T21:54:36.120Z,7.20
2022-12-06T21:57:06.775Z,7.30
2022-12-06T21:59:45.102Z,7.30
2022-12-06T22:02:14.533Z,7.20
2022-12-06T22:04:44.862Z,7.30
2022-12-06T22:07:17.396Z,7.20
2022-12-06T22:10:09.886Z,7.20
2022-12-06T22:12:38.211Z,7.20
2022-12-06T22:15:09.794Z,7.10
2022-12-06T22:17:38.905Z,7.10
2022-12-06T22:20:09.985Z,7.10
2022-12-06T22:22:59.058Z,7.10
2022-12-06T22:25:27.809Z,7.00
2022-12-06T22:27:59.300Z,7.00
2022-12-06T22:30:33.101Z,7.00
2022-12-06T22:33:01.432Z,6.90
2022-12-06T22:35:55.867Z,6.90
2022-12-06T22:38:46.652Z,6.90
2022-12-06T22:41:26.605Z,6.90
2022-12-06T22:43:58.368Z,6.90
2022-12-06T22:46:34.028Z,6.90
2022-12-06T22:49:03.672Z,6.80
2022-12-06T22:51:35.761Z,6.90
2022-12-06T22:54:28.061Z,6.90
2022-12-06T22:56:57.604Z,6.90
2022-12-06T22:59:46.871Z,6.90
2022-12-06T23:02:25.783Z,6.90
2022-12-06T23:05:15.180Z,6.80
2022-12-06T23:07:44.620Z,6.90
2022-12-06T23:10:17.970Z,6.90
2022-12-06T23:12:48.682Z,6.90
2022-12-06T23:15:20.675Z,6.90
2022-12-06T23:17:50.403Z,6.90
2022-12-06T23:20:19.680Z,6.90
2022-12-06T23:22:48.432Z,7.00
2022-12-06T23:25:33.437Z,7.00
2022-12-06T23:28:22.940Z,6.90
2022-12-06T23:30:55.541Z,6.90
2022-12-06T23:33:28.065Z,7.00
2022-12-06T23:36:04.375Z,7.00
2022-12-06T23:38:40.709Z,7.00
2022-12-06T23:41:13.391Z,7.00
2022-12-06T23:43:44.434Z,7.00
2022-12-06T23:46:20.499Z,6.90
2022-12-06T23:48:57.060Z,6.90
2022-12-06T23:51:27.124Z,6.90
2022-12-06T23:53:58.307Z,6.90
2022-12-06T23:56:28.790Z,6.90
2022-12-06T23:58:59.014Z,6.90
